Time;durP1;ratioP1;P1;durP2;ratioP2;P2;SDS_P1;SDS_P2;PMS_P1;PMS_P2;Temp;Humidity;BMP_temperature;BMP_pressure;BME280_temperature;BME280_humidity;BME280_pressure;Samples;Min_cycle;Max_cycle;Signal;HPM_P1;HPM_P2
2022/01/14 00:01:18;;;;;;;84.20;36.90;;;;;;;-3.62;100.00;99697.47;5110373;28;20043;-75
2022/01/14 00:03:43;;;;;;;90.13;38.30;;;;;;;-3.51;100.00;99704.38;5110493;28;20024;-76
2022/01/14 00:06:10;;;;;;;82.05;37.05;;;;;;;-3.46;100.00;99702.03;5109044;28;20022;-75
2022/01/14 00:08:35;;;;;;;77.57;35.97;;;;;;;-3.52;100.00;99702.69;5105582;28;20032;-76
2022/01/14 00:11:03;;;;;;;89.20;37.47;;;;;;;-3.51;100.00;99702.50;5105622;28;20445;-74
2022/01/14 00:16:06;;;;;;;85.30;36.63;;;;;;;-3.70;100.00;99704.63;5110611;28;20126;-76
2022/01/14 00:18:32;;;;;;;88.22;38.72;;;;;;;-3.60;100.00;99706.16;5109711;28;20209;-76
2022/01/14 00:20:59;;;;;;;84.22;36.83;;;;;;;-3.63;100.00;99703.81;5113546;28;20492;-76
2022/01/14 00:23:30;;;;;;;81.72;37.45;;;;;;;-3.62;100.00;99702.81;5114786;28;20032;-76
2022/01/14 00:34:07;;;;;;;71.05;34.05;;;;;;;-3.64;100.00;99691.47;5116344;28;20023;-76
2022/01/14 00:36:33;;;;;;;71.72;33.83;;;;;;;-3.66;100.00;99682.75;5114378;28;20024;-75
2022/01/14 00:38:58;;;;;;;82.47;36.92;;;;;;;-3.62;100.00;99688.59;5114849;28;20051;-75
2022/01/14 00:41:24;;;;;;;77.50;35.88;;;;;;;-3.67;100.00;99686.44;5114633;28;20119;-75
2022/01/14 00:43:55;;;;;;;77.30;34.78;;;;;;;-3.70;100.00;99694.78;5114806;27;20369;-76
2022/01/14 00:46:20;;;;;;;82.22;35.80;;;;;;;-3.73;100.00;99688.91;5116385;28;20016;-75
2022/01/14 00:48:46;;;;;;;82.40;36.75;;;;;;;-3.57;100.00;99679.09;5114616;28;20066;-75
2022/01/14 00:51:12;;;;;;;83.22;36.97;;;;;;;-3.58;100.00;99681.94;5114342;28;20019;-76
2022/01/14 00:53:37;;;;;;;85.43;37.55;;;;;;;-3.67;100.00;99670.41;5114282;28;20384;-75
2022/01/14 00:56:18;;;;;;;83.53;37.83;;;;;;;-3.64;100.00;99670.06;5112981;28;20016;-75
2022/01/14 01:01:27;;;;;;;77.57;35.22;;;;;;;-3.67;100.00;99665.06;5114077;28;20533;-76
2022/01/14 01:03:53;;;;;;;83.80;37.03;;;;;;;-3.77;100.00;99661.66;5111711;28;20024;-77
2022/01/14 01:06:18;;;;;;;95.25;39.30;;;;;;;-3.76;100.00;99655.34;5113960;28;20059;-76
2022/01/14 01:08:46;;;;;;;90.07;41.95;;;;;;;-3.81;100.00;99662.97;5113912;28;20024;-76
2022/01/14 01:11:11;;;;;;;88.40;40.10;;;;;;;-3.67;100.00;99665.06;5112901;28;20467;-76
2022/01/14 01:13:42;;;;;;;86.85;37.47;;;;;;;-3.67;100.00;99654.38;5113903;28;20028;-74
2022/01/14 01:16:08;;;;;;;86.57;36.95;;;;;;;-3.77;100.00;99653.66;5113706;28;20036;-75
2022/01/14 01:18:33;;;;;;;91.78;38.53;;;;;;;-3.75;100.00;99648.13;5113755;28;20034;-76
2022/01/14 01:21:00;;;;;;;85.20;37.28;;;;;;;-3.76;100.00;99639.31;5113800;28;20016;-76
2022/01/14 01:23:26;;;;;;;79.63;37.03;;;;;;;-3.95;100.00;99632.41;5112671;28;20023;-76
2022/01/14 01:25:59;;;;;;;81.90;37.33;;;;;;;-3.87;100.00;99643.09;5113640;28;20474;-76
2022/01/14 01:28:26;;;;;;;78.78;35.50;;;;;;;-3.88;100.00;99632.56;5112566;28;20039;-75
2022/01/14 01:31:04;;;;;;;78.50;34.58;;;;;;;-3.90;100.00;99629.22;5113532;28;20064;-75
2022/01/14 01:33:29;;;;;;;75.93;34.22;;;;;;;-3.93;100.00;99627.72;5113580;28;20024;-76
2022/01/14 01:35:56;;;;;;;65.50;30.08;;;;;;;-3.87;100.00;99626.22;5113273;28;20061;-78
2022/01/14 01:38:22;;;;;;;66.55;31.15;;;;;;;-4.12;100.00;99619.13;5112882;28;20122;-76
2022/01/14 01:40:48;;;;;;;69.20;30.45;;;;;;;-4.01;100.00;99624.19;5114391;28;20797;-79
2022/01/14 01:43:16;;;;;;;66.60;31.10;;;;;;;-3.94;100.00;99617.19;5113594;28;20027;-79
2022/01/14 01:45:44;;;;;;;62.83;30.52;;;;;;;-4.06;100.00;99613.13;5113379;28;20046;-76
2022/01/14 01:48:10;;;;;;;71.30;30.33;;;;;;;-3.92;100.00;99612.53;5113591;28;20472;-76
2022/01/14 01:50:36;;;;;;;61.42;28.42;;;;;;;-3.97;100.00;99612.16;5115449;28;20523;-77
2022/01/14 01:53:04;;;;;;;65.50;30.95;;;;;;;-4.01;100.00;99610.81;5128185;28;20028;-76
2022/01/14 01:55:29;;;;;;;70.82;31.08;;;;;;;-4.01;100.00;99608.16;5113720;28;20030;-75
2022/01/14 01:57:54;;;;;;;64.55;29.33;;;;;;;-4.06;100.00;99597.94;5111854;28;20143;-75
2022/01/14 02:00:24;;;;;;;61.90;28.08;;;;;;;-4.05;100.00;99606.81;5113019;28;20465;-76
2022/01/14 02:02:50;;;;;;;66.38;29.23;;;;;;;-4.11;100.00;99596.75;5112671;28;20499;-75
2022/01/14 02:05:16;;;;;;;62.97;26.65;;;;;;;-4.11;100.00;99584.25;5113176;28;20399;-76
2022/01/14 02:07:43;;;;;;;65.50;28.77;;;;;;;-4.07;100.00;99582.09;5113096;28;20023;-76
2022/01/14 02:10:09;;;;;;;61.83;28.63;;;;;;;-4.00;100.00;99588.44;5113470;28;20031;-75
2022/01/14 02:12:47;;;;;;;62.15;28.38;;;;;;;-3.95;100.00;99589.66;5113035;28;20496;-75
2022/01/14 02:15:29;;;;;;;56.42;26.40;;;;;;;-3.94;100.00;99585.13;5112779;28;20030;-75
2022/01/14 02:23:25;;;;;;;64.88;27.58;;;;;;;-4.11;100.00;99567.38;5113678;28;20050;-74
2022/01/14 02:25:51;;;;;;;60.67;27.90;;;;;;;-4.10;100.00;99571.72;5114591;28;20015;-78
2022/01/14 02:28:18;;;;;;;70.95;28.65;;;;;;;-4.06;100.00;99573.91;5123337;28;20035;-76
2022/01/14 02:30:46;;;;;;;65.85;28.45;;;;;;;-4.16;100.00;99567.00;5113082;28;20058;-76
2022/01/14 02:33:13;;;;;;;77.63;33.65;;;;;;;-4.28;100.00;99552.28;5113038;28;20085;-75
2022/01/14 02:35:41;;;;;;;84.85;35.95;;;;;;;-4.20;100.00;99555.00;5114313;28;20085;-76
2022/01/14 02:38:10;;;;;;;87.50;38.00;;;;;;;-4.19;100.00;99556.66;5112861;28;20023;-75
2022/01/14 02:40:37;;;;;;;81.28;34.78;;;;;;;-4.24;100.00;99553.66;5112998;28;20114;-75
2022/01/14 02:43:05;;;;;;;75.18;33.33;;;;;;;-4.23;100.00;99558.00;5111908;28;20016;-74
2022/01/14 02:45:34;;;;;;;79.50;34.70;;;;;;;-4.30;100.00;99548.94;5112252;28;20053;-75
2022/01/14 02:48:01;;;;;;;67.25;30.35;;;;;;;-4.38;100.00;99539.91;5111055;28;20023;-75
2022/01/14 02:50:35;;;;;;;70.93;31.15;;;;;;;-4.28;100.00;99549.63;5110913;28;20031;-75
2022/01/14 02:53:01;;;;;;;64.40;30.17;;;;;;;-4.36;100.00;99553.13;5112213;28;20754;-75
2022/01/14 02:55:30;;;;;;;70.75;30.83;;;;;;;-4.29;100.00;99540.75;5112004;28;20264;-76
2022/01/14 02:57:58;;;;;;;67.45;29.60;;;;;;;-4.30;100.00;99548.94;5112275;28;20048;-76
2022/01/14 03:00:29;;;;;;;69.75;29.15;;;;;;;-4.38;100.00;99542.56;5112690;28;20027;-76
2022/01/14 03:02:58;;;;;;;68.28;29.00;;;;;;;-4.32;100.00;99534.94;5112487;28;20036;-75
2022/01/14 03:05:27;;;;;;;68.53;30.10;;;;;;;-4.35;100.00;99528.91;5112403;28;20032;-76
2022/01/14 03:07:52;;;;;;;68.90;30.10;;;;;;;-4.23;100.00;99518.78;5113049;28;20388;-75
2022/01/14 03:10:19;;;;;;;67.10;30.25;;;;;;;-4.29;100.00;99524.75;5113607;28;20031;-75
2022/01/14 03:12:46;;;;;;;69.30;30.80;;;;;;;-4.27;100.00;99527.25;5112894;28;20024;-76
2022/01/14 03:15:12;;;;;;;72.35;29.95;;;;;;;-4.35;100.00;99515.56;5113121;28;20028;-76
2022/01/14 03:17:38;;;;;;;64.70;29.65;;;;;;;-4.26;100.00;99523.59;5112768;28;20074;-75
2022/01/14 03:20:07;;;;;;;64.20;30.00;;;;;;;-4.35;100.00;99515.56;5112084;28;20059;-76
2022/01/14 03:22:35;;;;;;;65.85;29.02;;;;;;;-4.35;100.00;99510.22;5111470;28;20110;-77
2022/01/14 03:27:46;;;;;;;66.40;28.13;;;;;;;-4.39;100.00;99497.38;5111815;28;20755;-75
2022/01/14 03:30:12;;;;;;;65.13;27.83;;;;;;;-4.41;100.00;99500.19;5111311;28;20027;-75
2022/01/14 03:32:39;;;;;;;62.05;29.65;;;;;;;-4.50;100.00;99487.81;5113280;28;20024;-75
2022/01/14 03:35:05;;;;;;;69.45;30.60;;;;;;;-4.45;100.00;99496.16;5110680;28;20027;-75
2022/01/14 03:37:31;;;;;;;64.85;29.73;;;;;;;-4.46;100.00;99491.84;5110261;28;20054;-75
2022/01/14 03:39:57;;;;;;;68.18;29.17;;;;;;;-4.52;100.00;99487.16;5111673;28;20480;-75
2022/01/14 03:42:22;;;;;;;74.78;29.88;;;;;;;-4.44;100.00;99495.16;5111334;28;20027;-75
2022/01/14 03:44:47;;;;;;;63.03;30.05;;;;;;;-4.49;100.00;99492.16;5111098;28;20031;-76
2022/01/14 03:47:13;;;;;;;65.85;28.25;;;;;;;-4.54;100.00;99481.13;5111130;28;20039;-75
2022/01/14 03:49:38;;;;;;;69.68;28.98;;;;;;;-4.57;100.00;99478.78;5118579;28;20020;-75
2022/01/14 03:52:04;;;;;;;67.88;28.15;;;;;;;-4.52;100.00;99480.97;5115597;28;20114;-77
2022/01/14 03:54:30;;;;;;;64.15;28.75;;;;;;;-4.59;100.00;99478.09;5115021;28;20488;-75
2022/01/14 03:56:55;;;;;;;55.72;25.92;;;;;;;-4.50;100.00;99476.28;5115027;28;20052;-75
2022/01/14 03:59:21;;;;;;;60.08;26.10;;;;;;;-4.56;100.00;99468.94;5115158;28;20035;-74
2022/01/14 04:01:46;;;;;;;54.15;25.10;;;;;;;-4.60;100.00;99463.09;5115176;28;20403;-75
2022/01/14 04:04:12;;;;;;;62.60;27.60;;;;;;;-4.56;100.00;99461.78;5113179;28;20034;-76
2022/01/14 04:06:37;;;;;;;53.83;25.17;;;;;;;-4.66;100.00;99461.06;5115286;28;20042;-75
2022/01/14 04:09:03;;;;;;;55.25;24.38;;;;;;;-4.61;100.00;99455.25;5115467;27;20024;-76
2022/01/14 04:11:30;;;;;;;52.30;23.98;;;;;;;-4.58;100.00;99449.59;5115908;28;20020;-74
2022/01/14 04:14:06;;;;;;;51.53;24.40;;;;;;;-4.50;100.00;99452.28;5115199;28;20391;-75
2022/01/14 04:16:32;;;;;;;52.97;25.10;;;;;;;-4.37;100.00;99450.81;5115417;28;21383;-74
2022/01/14 04:18:57;;;;;;;51.00;23.83;;;;;;;-4.45;100.00;99445.44;5114962;28;20028;-75
2022/01/14 04:21:23;;;;;;;45.60;22.40;;;;;;;-4.41;100.00;99448.63;5113687;28;20046;-75
2022/01/14 04:23:48;;;;;;;57.70;25.80;;;;;;;-4.46;100.00;99453.63;5115099;28;20024;-75
2022/01/14 04:26:15;;;;;;;61.35;25.25;;;;;;;-4.46;100.00;99453.63;5116504;28;20019;-77
2022/01/14 04:28:40;;;;;;;64.68;26.05;;;;;;;-4.50;100.00;99446.94;5116186;28;20020;-75
2022/01/14 04:31:08;;;;;;;55.67;24.88;;;;;;;-4.48;100.00;99442.28;5114730;28;20032;-74
2022/01/14 04:33:34;;;;;;;62.40;26.63;;;;;;;-4.52;100.00;99443.59;5113382;28;20093;-77
2022/01/14 04:36:01;;;;;;;62.95;27.67;;;;;;;-4.61;100.00;99434.75;5114995;28;20419;-75
2022/01/14 04:38:29;;;;;;;62.95;26.52;;;;;;;-4.54;100.00;99437.59;5114983;28;20031;-75
2022/01/14 04:40:55;;;;;;;69.70;26.75;;;;;;;-4.59;100.00;99432.75;5124424;28;20023;-75
2022/01/14 04:43:21;;;;;;;51.08;24.75;;;;;;;-4.55;100.00;99431.44;5114702;28;20041;-75
2022/01/14 04:48:25;;;;;;;54.92;24.90;;;;;;;-4.57;100.00;99427.22;5094437;28;20118;-78
2022/01/14 04:50:52;;;;;;;58.10;26.45;;;;;;;-4.57;100.00;99424.56;5107162;28;20058;-75
2022/01/14 04:53:17;;;;;;;57.78;26.73;;;;;;;-4.63;100.00;99410.03;5114344;28;20076;-75
2022/01/14 04:55:43;;;;;;;51.97;24.55;;;;;;;-4.54;100.00;99411.72;5114316;28;20027;-75
2022/01/14 04:58:09;;;;;;;58.92;25.63;;;;;;;-4.59;100.00;99416.72;5113999;28;20423;-75
2022/01/14 05:00:36;;;;;;;52.95;25.83;;;;;;;-4.54;100.00;99409.06;5114214;28;20024;-75
2022/01/14 05:03:01;;;;;;;57.10;26.42;;;;;;;-4.50;100.00;99407.75;5100643;28;20030;-76
2022/01/14 05:05:33;;;;;;;68.65;26.92;;;;;;;-4.45;100.00;99418.75;5092656;28;20036;-75
2022/01/14 05:07:59;;;;;;;53.80;26.05;;;;;;;-4.49;100.00;99417.44;5093150;28;20039;-74
2022/01/14 05:12:50;;;;;;;57.85;25.02;;;;;;;-4.62;100.00;99425.06;5093388;28;20491;-75
2022/01/14 05:15:17;;;;;;;51.17;24.45;;;;;;;-4.61;100.00;99402.72;5093727;28;20028;-76
2022/01/14 05:17:42;;;;;;;54.50;24.70;;;;;;;-4.61;100.00;99413.41;5093840;28;20024;-75
2022/01/14 05:20:09;;;;;;;55.22;26.15;;;;;;;-4.67;100.00;99414.06;5092426;28;20035;-76
2022/01/14 05:22:35;;;;;;;57.65;26.52;;;;;;;-4.63;100.00;99410.03;5096985;28;20464;-75
2022/01/14 05:25:00;;;;;;;57.22;24.48;;;;;;;-4.60;100.00;99407.03;5093577;28;20085;-75
2022/01/14 05:27:26;;;;;;;55.35;24.38;;;;;;;-4.59;100.00;99397.19;5093250;28;20035;-75
2022/01/14 05:29:51;;;;;;;55.70;25.92;;;;;;;-4.61;100.00;99396.53;5093063;28;20469;-75
2022/01/14 05:32:17;;;;;;;68.55;30.20;;;;;;;-4.60;100.00;99388.34;5093172;28;20369;-75
2022/01/14 05:34:44;;;;;;;70.68;29.85;;;;;;;-4.71;100.00;99393.19;5092840;28;20024;-75
2022/01/14 05:37:11;;;;;;;67.57;31.08;;;;;;;-4.73;100.00;99395.19;5093175;28;20032;-75
2022/01/14 05:39:37;;;;;;;80.25;32.55;;;;;;;-4.66;100.00;99390.84;5105182;28;20541;-74
2022/01/14 05:42:04;;;;;;;68.28;30.00;;;;;;;-4.66;100.00;99394.34;5113937;28;20020;-76
2022/01/14 05:44:30;;;;;;;66.07;31.30;;;;;;;-4.67;100.00;99391.88;5113389;28;20396;-76
2022/01/14 05:46:57;;;;;;;70.90;31.33;;;;;;;-4.71;100.00;99391.34;5112847;28;20085;-76
2022/01/14 05:49:24;;;;;;;69.07;30.52;;;;;;;-4.57;100.00;99387.19;5113231;28;20464;-77
2022/01/14 05:51:49;;;;;;;68.03;31.13;;;;;;;-4.59;100.00;99389.19;5113471;28;20058;-76
2022/01/14 05:54:16;;;;;;;78.25;31.17;;;;;;;-4.69;100.00;99386.66;5120142;28;20023;-76
2022/01/14 05:56:42;;;;;;;66.38;31.77;;;;;;;-4.74;100.00;99377.50;5113210;28;20202;-78
2022/01/14 05:59:08;;;;;;;67.85;31.73;;;;;;;-4.60;100.00;99383.03;5113295;28;20134;-78
2022/01/14 06:01:33;;;;;;;65.55;32.67;;;;;;;-4.61;100.00;99370.69;5113083;28;20020;-74
2022/01/14 06:04:03;;;;;;;66.45;31.67;;;;;;;-4.67;100.00;99374.03;5113073;28;20028;-75
2022/01/14 06:06:28;;;;;;;79.97;34.17;;;;;;;-4.68;100.00;99368.84;5113097;28;20036;-75
2022/01/14 06:08:54;;;;;;;68.65;32.40;;;;;;;-4.63;100.00;99372.69;5112947;28;20020;-78
2022/01/14 06:11:19;;;;;;;71.28;33.70;;;;;;;-4.68;100.00;99369.69;5113021;28;20385;-75
2022/01/14 06:13:46;;;;;;;82.80;35.50;;;;;;;-4.79;100.00;99371.81;5112561;28;20027;-76
2022/01/14 06:16:12;;;;;;;82.70;36.05;;;;;;;-4.71;100.00;99359.34;5112542;28;20430;-75
2022/01/14 06:18:37;;;;;;;68.57;32.25;;;;;;;-4.50;100.00;99359.69;5114566;28;20036;-74
2022/01/14 06:21:04;;;;;;;74.72;34.28;;;;;;;-4.45;100.00;99352.00;5112985;28;20031;-74
2022/01/14 06:23:29;;;;;;;68.18;31.85;;;;;;;-4.53;100.00;99362.69;5111125;28;20031;-76
2022/01/14 06:25:55;;;;;;;75.85;33.63;;;;;;;-4.65;100.00;99358.69;5113032;28;20031;-75
2022/01/14 06:28:20;;;;;;;73.78;33.17;;;;;;;-4.66;100.00;99356.16;5112565;28;20028;-74
2022/01/14 06:30:46;;;;;;;77.00;32.42;;;;;;;-4.62;100.00;99361.00;5113174;28;20011;-74
2022/01/14 06:33:11;;;;;;;76.40;31.25;;;;;;;-4.58;100.00;99361.53;5112277;28;20110;-77
2022/01/14 06:35:37;;;;;;;73.72;35.05;;;;;;;-4.58;100.00;99349.03;5112095;28;20039;-74
2022/01/14 06:38:02;;;;;;;72.72;35.22;;;;;;;-4.53;100.00;99346.69;5111864;27;20039;-76
2022/01/14 06:40:29;;;;;;;82.50;37.17;;;;;;;-4.64;100.00;99352.34;5092336;28;20361;-76
2022/01/14 06:42:55;;;;;;;85.65;36.33;;;;;;;-4.49;100.00;99356.03;5098078;28;20027;-75
2022/01/14 06:45:21;;;;;;;76.43;33.63;;;;;;;-4.48;100.00;99352.34;5106353;28;20023;-76
2022/01/14 06:47:47;;;;;;;74.65;33.05;;;;;;;-4.58;100.00;99357.03;5110803;28;20114;-78
2022/01/14 06:50:13;;;;;;;69.90;33.05;;;;;;;-4.55;100.00;99343.34;5111934;28;20115;-77
2022/01/14 06:52:38;;;;;;;73.90;33.17;;;;;;;-4.44;100.00;99348.34;5118242;28;20046;-78
2022/01/14 06:55:04;;;;;;;87.55;34.70;;;;;;;-4.31;100.00;99345.19;5117709;28;20119;-81
2022/01/14 06:57:30;;;;;;;75.82;35.38;;;;;;;-4.27;100.00;99332.34;5112400;28;20071;-79
2022/01/14 06:59:55;;;;;;;68.05;33.78;;;;;;;-4.27;100.00;99333.19;5117744;28;20023;-81
2022/01/14 07:02:21;;;;;;;70.43;33.83;;;;;;;-4.04;100.00;99323.47;5116110;28;20024;-75
2022/01/14 07:04:46;;;;;;;69.63;32.50;;;;;;;-3.23;100.00;99335.81;5118354;28;20020;-84
2022/01/14 07:07:13;;;;;;;65.50;31.38;;;;;;;-2.62;100.00;99337.63;5123182;28;20046;-82
2022/01/14 07:09:55;;;;;;;71.45;30.05;;;;;;;-2.13;100.00;99340.81;5127470;28;20042;-83
2022/01/14 07:12:22;;;;;;;77.15;31.35;;;;;;;-1.88;100.00;99335.03;5119469;28;20042;-80
2022/01/14 07:14:48;;;;;;;66.80;29.67;;;;;;;-1.51;99.80;99336.84;5117437;28;20047;-80
2022/01/14 07:17:13;;;;;;;62.80;29.40;;;;;;;-1.30;97.47;99336.94;5116797;28;20027;-82
2022/01/14 07:19:38;;;;;;;68.00;30.58;;;;;;;-0.82;94.86;99340.03;5118752;28;20126;-82
2022/01/14 07:22:04;;;;;;;66.72;29.33;;;;;;;-0.33;90.42;99342.84;5116107;28;20069;-84
2022/01/14 07:24:29;;;;;;;65.13;31.13;;;;;;;-0.19;88.76;99344.66;5107763;28;20054;-79
2022/01/14 07:26:54;;;;;;;63.35;30.23;;;;;;;0.11;87.46;99335.41;5110424;28;20023;-78
2022/01/14 07:29:20;;;;;;;63.35;30.65;;;;;;;0.38;85.80;99336.41;5109820;28;20051;-77
2022/01/14 07:31:45;;;;;;;62.63;30.48;;;;;;;0.86;82.46;99340.88;5110396;28;20434;-75
2022/01/14 07:34:11;;;;;;;59.50;30.50;;;;;;;1.66;79.56;99337.44;5109708;28;20051;-77
2022/01/14 07:36:36;;;;;;;57.65;27.83;;;;;;;1.87;77.62;99329.19;5110991;28;20569;-76
2022/01/14 07:39:05;;;;;;;53.53;29.52;;;;;;;2.07;75.52;99334.59;5112937;28;20031;-74
2022/01/14 07:41:32;;;;;;;58.65;29.17;;;;;;;2.40;74.47;99331.91;5107402;28;20028;-76
2022/01/14 07:43:57;;;;;;;57.30;29.52;;;;;;;2.51;72.77;99342.88;5110865;28;20111;-78
2022/01/14 07:46:23;;;;;;;65.32;30.73;;;;;;;2.46;77.06;99331.91;5112688;28;20158;-78
2022/01/14 07:48:48;;;;;;;66.60;31.98;;;;;;;2.62;76.59;99319.84;5109005;28;20031;-78
2022/01/14 07:51:13;;;;;;;58.10;29.70;;;;;;;2.67;75.76;99326.25;5109988;28;20020;-75
2022/01/14 07:53:40;;;;;;;60.13;31.00;;;;;;;2.77;72.54;99333.94;5111519;28;20024;-75
2022/01/14 07:56:07;;;;;;;62.22;31.40;;;;;;;2.90;71.90;99330.34;5114646;28;20011;-76
2022/01/14 07:58:33;;;;;;;59.97;30.35;;;;;;;3.21;71.50;99335.88;5110075;28;20484;-77
2022/01/14 08:00:58;;;;;;;67.18;32.97;;;;;;;3.72;68.62;99335.84;5109379;28;20034;-77
2022/01/14 08:03:23;;;;;;;62.17;33.38;;;;;;;4.17;66.37;99339.25;5106333;28;20016;-77
2022/01/14 08:05:50;;;;;;;62.95;33.92;;;;;;;3.99;66.73;99320.25;5108640;28;20035;-76
2022/01/14 08:08:16;;;;;;;61.80;33.03;;;;;;;4.50;64.75;99325.44;5109917;28;20050;-76
2022/01/14 08:10:41;;;;;;;65.35;34.35;;;;;;;4.60;63.66;99334.75;5109530;28;20124;-75
2022/01/14 08:13:07;;;;;;;62.47;30.67;;;;;;;4.88;63.53;99333.41;5109604;28;20123;-74
2022/01/14 08:15:32;;;;;;;58.92;32.00;;;;;;;5.13;61.74;99326.88;5109599;28;20060;-76
2022/01/14 08:18:00;;;;;;;56.72;30.38;;;;;;;4.71;63.22;99322.31;5109008;28;20028;-76
2022/01/14 08:20:25;;;;;;;56.45;30.23;;;;;;;4.72;64.02;99315.84;5108894;28;20106;-70
2022/01/14 08:22:51;;;;;;;59.10;32.15;;;;;;;4.06;65.45;99321.88;5108840;28;20107;-74
2022/01/14 08:25:16;;;;;;;55.95;30.60;;;;;;;4.19;65.08;99315.50;5103771;28;20081;-74
2022/01/14 08:27:41;;;;;;;60.58;31.30;;;;;;;4.55;63.54;99314.75;5109039;28;20091;-75
2022/01/14 08:30:07;;;;;;;65.57;33.00;;;;;;;4.27;64.60;99312.50;5109606;28;20027;-75
2022/01/14 08:32:33;;;;;;;64.72;33.88;;;;;;;4.96;62.73;99314.13;5109625;28;20038;-75
2022/01/14 08:34:58;;;;;;;62.08;34.08;;;;;;;4.60;63.23;99313.06;5110076;28;20024;-77
2022/01/14 08:37:24;;;;;;;68.15;33.28;;;;;;;5.22;61.89;99316.53;5109745;28;20024;-75
2022/01/14 08:39:49;;;;;;;59.13;32.80;;;;;;;5.55;60.96;99308.81;5108978;28;20028;-76
2022/01/14 08:42:15;;;;;;;61.25;33.72;;;;;;;5.91;62.25;99318.78;5114557;28;20054;-75
2022/01/14 08:44:42;;;;;;;60.28;32.92;;;;;;;6.10;60.81;99319.53;5112050;28;20034;-74
2022/01/14 08:47:09;;;;;;;59.88;33.40;;;;;;;6.42;59.47;99318.19;5113665;28;20084;-74
2022/01/14 08:49:42;;;;;;;59.92;34.42;;;;;;;7.07;56.08;99316.13;5113215;28;20392;-77
2022/01/14 08:52:10;;;;;;;60.85;34.58;;;;;;;6.98;56.03;99314.84;5113124;28;20476;-75
2022/01/14 08:54:36;;;;;;;66.40;35.75;;;;;;;7.07;55.40;99324.31;5115313;28;20039;-77
2022/01/14 08:57:04;;;;;;;64.60;36.80;;;;;;;6.94;55.79;99306.34;5106853;28;20040;-76
2022/01/14 08:59:31;;;;;;;67.18;36.38;;;;;;;7.15;55.82;99307.59;5094110;28;20480;-75
2022/01/14 09:01:57;;;;;;;62.63;35.25;;;;;;;7.47;54.11;99322.44;5110108;28;20115;-77
2022/01/14 09:04:23;;;;;;;66.10;36.28;;;;;;;6.93;55.13;99315.56;5114380;28;20065;-78
2022/01/14 09:06:48;;;;;;;60.95;35.05;;;;;;;7.20;54.42;99312.34;5114359;28;20110;-77
2022/01/14 09:09:14;;;;;;;57.00;34.25;;;;;;;8.71;51.49;99308.84;5114460;28;20016;-75
2022/01/14 09:11:41;;;;;;;65.05;36.15;;;;;;;8.43;51.48;99307.03;5113631;28;20043;-76
2022/01/14 09:14:07;;;;;;;57.17;36.15;;;;;;;8.26;51.88;99306.19;5112573;28;20024;-76
2022/01/14 09:16:32;;;;;;;70.43;37.35;;;;;;;6.67;55.61;99288.84;5116073;28;20023;-78
2022/01/14 09:18:58;;;;;;;67.32;37.33;;;;;;;7.26;54.24;99304.03;5113357;28;20157;-76
2022/01/14 09:21:24;;;;;;;71.35;43.50;;;;;;;7.35;54.51;99302.59;5105470;28;20023;-76
2022/01/14 09:24:08;;;;;;;67.32;39.75;;;;;;;7.18;54.98;99293.50;5110410;28;20094;-77
2022/01/14 09:26:35;;;;;;;66.90;37.85;;;;;;;8.80;50.70;99299.16;5110577;28;20505;-78
2022/01/14 09:29:05;;;;;;;62.83;36.67;;;;;;;9.46;48.88;99292.69;5110959;28;20020;-77
2022/01/14 09:31:31;;;;;;;62.75;37.30;;;;;;;9.67;47.75;99292.66;5108992;28;20028;-79
2022/01/14 09:33:57;;;;;;;66.70;39.13;;;;;;;8.52;50.54;99292.72;5109143;28;20027;-76
2022/01/14 09:36:23;;;;;;;66.43;36.75;;;;;;;9.56;48.40;99290.06;5111626;28;20027;-75
2022/01/14 09:38:49;;;;;;;70.43;38.05;;;;;;;10.11;46.30;99279.72;5108434;28;20574;-74
2022/01/14 09:41:17;;;;;;;69.97;39.22;;;;;;;9.20;48.36;99296.16;5111892;28;20024;-79
2022/01/14 09:43:45;;;;;;;71.55;38.95;;;;;;;8.58;49.93;99297.19;5109538;28;20112;-76
2022/01/14 09:46:11;;;;;;;60.72;35.05;;;;;;;9.10;49.16;99277.75;5111678;28;20023;-77
2022/01/14 09:48:37;;;;;;;61.47;34.78;;;;;;;9.58;47.95;99269.63;5112180;28;20521;-76
2022/01/14 09:51:07;;;;;;;67.25;37.15;;;;;;;8.32;51.07;99280.69;5109668;28;20011;-75
2022/01/14 09:53:33;;;;;;;61.88;35.05;;;;;;;8.21;53.52;99262.47;5114738;28;20072;-77
2022/01/14 09:56:01;;;;;;;61.72;36.97;;;;;;;7.97;52.86;99267.25;5113003;28;20027;-75
2022/01/14 09:58:29;;;;;;;66.20;38.30;;;;;;;8.18;52.07;99257.50;5119052;28;20493;-77
2022/01/14 10:01:11;;;;;;;61.63;32.88;;;;;;;8.23;51.29;99272.06;5111420;28;20023;-73
2022/01/14 10:04:02;;;;;;;60.30;33.55;;;;;;;8.48;52.13;99247.97;5111252;28;20042;-79
2022/01/14 10:06:44;;;;;;;63.10;33.75;;;;;;;9.46;48.76;99255.25;5107642;28;20395;-76
2022/01/14 10:09:11;;;;;;;58.92;35.15;;;;;;;9.45;48.24;99250.88;5111245;28;20023;-76
2022/01/14 10:11:40;;;;;;;63.80;35.13;;;;;;;10.46;46.50;99232.69;5110473;28;20020;-78
2022/01/14 10:14:15;;;;;;;62.80;35.45;;;;;;;9.76;49.23;99248.47;5106180;28;20028;-77
2022/01/14 10:16:41;;;;;;;55.97;32.90;;;;;;;9.75;48.88;99241.34;5109358;28;20015;-76
2022/01/14 10:19:40;;;;;;;63.50;35.60;;;;;;;8.58;50.27;99242.66;5093719;28;20032;-75
2022/01/14 10:22:32;;;;;;;62.60;34.50;;;;;;;8.68;51.36;99231.06;5050544;28;20101;-75
2022/01/14 10:25:07;;;;;;;57.42;32.33;;;;;;;8.61;49.82;99230.44;5099851;28;20028;-74
2022/01/14 10:27:35;;;;;;;;;;;;;;;8.04;51.54;99224.34;5098350;28;20022;-77
2022/01/14 10:30:29;;;;;;;56.50;30.15;;;;;;;8.54;51.19;99214.25;5098130;28;19916;-76
2022/01/14 10:33:06;;;;;;;54.40;30.23;;;;;;;9.78;48.38;99210.78;5090852;28;20366;-79
2022/01/14 10:35:37;;;;;;;48.13;28.40;;;;;;;11.11;45.13;99201.31;5090384;28;20020;-75
2022/01/14 10:38:07;;;;;;;54.33;33.85;;;;;;;10.50;45.39;99211.09;5088726;28;20027;-75
2022/01/14 10:40:38;;;;;;;54.33;33.15;;;;;;;10.78;45.11;99194.31;5101398;28;20077;-76
2022/01/14 10:43:06;;;;;;;58.25;34.55;;;;;;;9.82;47.13;99182.69;5094655;28;20024;-75
2022/01/14 10:45:32;;;;;;;59.67;35.78;;;;;;;10.76;46.01;99185.56;5105601;28;20031;-75
2022/01/14 10:48:06;;;;;;;63.72;35.97;;;;;;;10.13;47.00;99181.88;5090065;28;20024;-75
2022/01/14 10:50:47;;;;;;;54.42;33.70;;;;;;;10.24;46.72;99181.97;5100835;28;20024;-78
2022/01/14 10:53:21;;;;;;;64.18;37.92;;;;;;;10.63;46.53;99167.69;5104404;28;20159;-77
2022/01/14 10:55:48;;;;;;;60.30;36.55;;;;;;;10.68;45.97;99162.25;5090835;28;20024;-75
2022/01/14 10:58:15;;;;;;;71.95;42.20;;;;;;;9.83;48.16;99153.47;5093366;28;20059;-75
2022/01/14 11:00:46;;;;;;;77.72;42.40;;;;;;;9.87;48.46;99160.84;5109117;28;20488;-74
2022/01/14 11:03:13;;;;;;;68.07;40.97;;;;;;;10.25;48.23;99146.13;5101925;28;20508;-74
2022/01/14 11:05:39;;;;;;;68.55;37.42;;;;;;;10.33;47.39;99142.09;5103726;28;20027;-74
2022/01/14 11:08:05;;;;;;;70.03;36.88;;;;;;;10.35;47.23;99138.00;5098798;28;20031;-73
2022/01/14 11:10:36;;;;;;;71.03;39.40;;;;;;;10.24;47.55;99132.75;5110294;28;20026;-75
2022/01/14 11:13:04;;;;;;;66.18;39.88;;;;;;;9.84;48.35;99135.97;5093997;28;20024;-76
2022/01/14 11:15:31;;;;;;;68.95;40.88;;;;;;;9.87;48.58;99125.34;5098987;28;20031;-75
2022/01/14 11:18:00;;;;;;;68.00;39.05;;;;;;;9.35;49.60;99108.78;5108378;28;20055;-76
2022/01/14 11:20:37;;;;;;;61.58;36.45;;;;;;;8.57;51.71;99121.03;5094371;28;20027;-76
2022/01/14 11:23:15;;;;;;;65.45;37.45;;;;;;;8.38;52.34;99107.94;5090629;28;20115;-76
2022/01/14 11:25:55;;;;;;;66.30;37.72;;;;;;;9.10;51.19;99097.63;5090246;28;20031;-76
2022/01/14 11:28:28;;;;;;;66.75;35.70;;;;;;;8.86;52.01;99090.81;5103872;28;20571;-74
2022/01/14 11:30:53;;;;;;;62.30;36.08;;;;;;;9.15;50.83;99094.94;5102120;28;20361;-76
2022/01/14 11:33:19;;;;;;;63.88;34.65;;;;;;;9.02;51.18;99081.72;5109055;28;20030;-75
2022/01/14 11:35:55;;;;;;;60.40;35.50;;;;;;;9.32;51.01;99079.28;5107745;28;20020;-76
2022/01/14 11:38:44;;;;;;;66.25;36.42;;;;;;;8.83;52.20;99075.78;5096824;28;20085;-74
2022/01/14 11:41:15;;;;;;;62.78;37.67;;;;;;;9.21;51.53;99082.19;5088521;28;20045;-75
2022/01/14 11:43:52;;;;;;;70.55;36.83;;;;;;;8.72;52.52;99081.38;5088650;28;20020;-75